KMSN

Dane County Regional-Truax Field Airport

Madison, Wisconsin, USA
METAR KMSN 191853Z 22009G20KT 10SM BKN027 OVC035 12/07 A2979 RMK AO2 SLP091 T01220067
Observed Flight Rules
Oct-19 @ 18:53 UTC (60 minutes ago) Marginal Visual Flight Rules
Wind Visibility Clouds
220° at 9 knots
 Gusting to 20 knots
10 miles
  • Broken at 2,700' AGL
  • Overcast at 3,500' AGL
Temperatures Readings
Current 12°C / 54°F
Dewpoint 7°C / 45°F
Humidity 72%
Altimeter 29.79" Hg
Pressure 1009.1 hPa
Elevation 261
METAR KMSN 191853Z 22009G20KT 10SM BKN027 OVC035 12/07 A2979 RMK AO2 SLP091 T01220067
Observed Flight Rules
Oct-19 @ 18:53 UTC
(60 minutes ago)
MVFR
Wind Visibility
220° at 9 knots
 Gusting to 20 knots
10 miles
Clouds
  • Broken at 2,700' AGL
  • Overcast at 3,500' AGL
Temperature Dewpoint
12°C / 54°F 7°C / 45°F
Humidity Altimeter Pressure
72% 29.79" Hg 1009.1 hPa